PWSweather.com
Personal Weather Stations
Station Observations
NAGEO265NE
Bedzin GrodziecPL 42-506

Bedzin GrodziecPL 42-506

Lat: 50.347, Lon: 19.079

Elevation: 948

Station Type: WH1080

http://www.meteo-grodziec.pl/

High Low Average
Temperature 68.2°F20.1°C 43.3°F6.3°C 54.7°F12.6°C
Dew Point 44.1°F6.7°C 30.7°F-0.7°C 38.5°F3.6°C
Winds 12.0 mph 19.3 kmh Calm Calm 5.0 mph SW8.0 kmh SW
Wind Gusts 27.0 mph43.5 kmh -- 12.0 mph19.3 kmh
Humidity 94% 25% 60%
Pressure 29.77 in1008.1 mb 29.60 in1002.4 mb -
Precipitation 0.00 in0.0 mm - -
Hour Temp Dew Point Humidity Winds Wind Gusts Pressure Precip Precip Rate Daily Precip Total
12:00 AM 43.3°F6.3°C 41.7°F5.4°C 94% 2.0 mph SW3.2 kmh SW 5.0 mph8.0 kmh 29.77 in1008.1 mb 0.00 in0.0 mm 0.00 in0.0 mm 0.00 in0.0 mm
12:05 AM 43.3°F6.3°C 41.7°F5.4°C 94% 1.0 mph SW1.6 kmh SW 5.0 mph8.0 kmh 29.77 in1008.1 mb 0.00 in0.0 mm 0.00 in0.0 mm 0.00 in0.0 mm
12:10 AM 43.5°F6.4°C 41.5°F5.3°C 93% 1.0 mph SW1.6 kmh SW 6.0 mph9.7 kmh 29.77 in1008.1 mb 0.00 in0.0 mm 0.00 in0.0 mm 0.00 in0.0 mm
12:15 AM 43.5°F6.4°C 41.7°F5.4°C 93% 2.0 mph SW3.2 kmh SW 6.0 mph9.7 kmh 29.77 in1008.1 mb 0.00 in0.0 mm 0.00 in0.0 mm 0.00 in0.0 mm
12:20 AM 43.5°F6.4°C 41.7°F5.4°C 93% 2.0 mph SW3.2 kmh SW 7.0 mph11.3 kmh 29.77 in1008.1 mb 0.00 in0.0 mm 0.00 in0.0 mm 0.00 in0.0 mm
12:25 AM 43.7°F6.5°C 41.7°F5.4°C 93% 1.0 mph SW1.6 kmh SW 7.0 mph11.3 kmh 29.77 in1008.1 mb 0.00 in0.0 mm 0.00 in0.0 mm 0.00 in0.0 mm
12:30 AM 43.7°F6.5°C 41.7°F5.4°C 93% 2.0 mph SW3.2 kmh SW 5.0 mph8.0 kmh 29.76 in1007.8 mb 0.00 in0.0 mm 0.00 in0.0 mm 0.00 in0.0 mm
12:35 AM 43.7°F6.5°C 41.7°F5.4°C 93% 2.0 mph SW3.2 kmh SW 5.0 mph8.0 kmh 29.76 in1007.8 mb 0.00 in0.0 mm 0.00 in0.0 mm 0.00 in0.0 mm
12:40 AM 43.7°F6.5°C 41.7°F5.4°C 93% 1.0 mph WSW1.6 kmh WSW 4.0 mph6.4 kmh 29.76 in1007.8 mb 0.00 in0.0 mm 0.00 in0.0 mm 0.00 in0.0 mm
12:45 AM 43.7°F6.5°C 41.7°F5.4°C 93% 1.0 mph SW1.6 kmh SW 4.0 mph6.4 kmh 29.77 in1008.1 mb 0.00 in0.0 mm 0.00 in0.0 mm 0.00 in0.0 mm
12:50 AM 43.7°F6.5°C 41.7°F5.4°C 93% 1.0 mph SW1.6 kmh SW 7.0 mph11.3 kmh 29.76 in1007.8 mb 0.00 in0.0 mm 0.00 in0.0 mm 0.00 in0.0 mm
12:55 AM 43.9°F6.6°C 41.9°F5.5°C 93% 2.0 mph SW3.2 kmh SW 7.0 mph11.3 kmh 29.76 in1007.8 mb 0.00 in0.0 mm 0.00 in0.0 mm 0.00 in0.0 mm
01:00 AM 43.9°F6.6°C 42.1°F5.6°C 93% 2.0 mph SW3.2 kmh SW 6.0 mph9.7 kmh 29.76 in1007.8 mb 0.00 in0.0 mm 0.00 in0.0 mm 0.00 in0.0 mm
01:05 AM 43.9°F6.6°C 42.1°F5.6°C 93% 2.0 mph SW3.2 kmh SW 7.0 mph11.3 kmh 29.76 in1007.8 mb 0.00 in0.0 mm 0.00 in0.0 mm 0.00 in0.0 mm
01:10 AM 43.9°F6.6°C 42.1°F5.6°C 93% 2.0 mph SW3.2 kmh SW 7.0 mph11.3 kmh 29.76 in1007.8 mb 0.00 in0.0 mm 0.00 in0.0 mm 0.00 in0.0 mm
01:15 AM 44.1°F6.7°C 41.9°F5.5°C 92% 3.0 mph SW4.8 kmh SW 6.0 mph9.7 kmh 29.77 in1008.1 mb 0.00 in0.0 mm 0.00 in0.0 mm 0.00 in0.0 mm
01:20 AM 44.2°F6.8°C 42.1°F5.6°C 92% 3.0 mph SW4.8 kmh SW 6.0 mph9.7 kmh 29.76 in1007.8 mb 0.00 in0.0 mm 0.00 in0.0 mm 0.00 in0.0 mm
01:25 AM 44.2°F6.8°C 42.1°F5.6°C 92% 3.0 mph SW4.8 kmh SW 8.0 mph12.9 kmh 29.76 in1007.8 mb 0.00 in0.0 mm 0.00 in0.0 mm 0.00 in0.0 mm
01:30 AM 44.4°F6.9°C 42.3°F5.7°C 92% 3.0 mph SW4.8 kmh SW 8.0 mph12.9 kmh 29.76 in1007.8 mb 0.00 in0.0 mm 0.00 in0.0 mm 0.00 in0.0 mm
01:35 AM 44.4°F6.9°C 42.3°F5.7°C 92% 2.0 mph SW3.2 kmh SW 9.0 mph14.5 kmh 29.75 in1007.5 mb 0.00 in0.0 mm 0.00 in0.0 mm 0.00 in0.0 mm
01:40 AM 44.4°F6.9°C 42.3°F5.7°C 92% 3.0 mph SW4.8 kmh SW 9.0 mph14.5 kmh 29.75 in1007.5 mb 0.00 in0.0 mm 0.00 in0.0 mm 0.00 in0.0 mm
01:45 AM 44.4°F6.9°C 42.1°F5.6°C 91% 3.0 mph SW4.8 kmh SW 7.0 mph11.3 kmh 29.75 in1007.5 mb 0.00 in0.0 mm 0.00 in0.0 mm 0.00 in0.0 mm
01:50 AM 44.6°F7.0°C 42.1°F5.6°C 91% 2.0 mph SW3.2 kmh SW 7.0 mph11.3 kmh 29.75 in1007.5 mb 0.00 in0.0 mm 0.00 in0.0 mm 0.00 in0.0 mm
01:55 AM 44.8°F7.1°C 42.3°F5.7°C 91% 2.0 mph SW3.2 kmh SW 8.0 mph12.9 kmh 29.75 in1007.5 mb 0.00 in0.0 mm 0.00 in0.0 mm 0.00 in0.0 mm
02:00 AM 44.8°F7.1°C 42.3°F5.7°C 91% 2.0 mph SW3.2 kmh SW 8.0 mph12.9 kmh 29.74 in1007.1 mb 0.00 in0.0 mm 0.00 in0.0 mm 0.00 in0.0 mm
02:05 AM 44.8°F7.1°C 42.3°F5.7°C 91% 2.0 mph SW3.2 kmh SW 6.0 mph9.7 kmh 29.74 in1007.1 mb 0.00 in0.0 mm 0.00 in0.0 mm 0.00 in0.0 mm
02:10 AM 45.0°F7.2°C 42.4°F5.8°C 91% 2.0 mph SW3.2 kmh SW 5.0 mph8.0 kmh 29.74 in1007.1 mb 0.00 in0.0 mm 0.00 in0.0 mm 0.00 in0.0 mm
02:15 AM 45.0°F7.2°C 42.6°F5.9°C 91% 2.0 mph SW3.2 kmh SW 8.0 mph12.9 kmh 29.74 in1007.1 mb 0.00 in0.0 mm 0.00 in0.0 mm 0.00 in0.0 mm
02:20 AM 45.1°F7.3°C 42.3°F5.7°C 90% 3.0 mph SW4.8 kmh SW 8.0 mph12.9 kmh 29.74 in1007.1 mb 0.00 in0.0 mm 0.00 in0.0 mm 0.00 in0.0 mm
02:25 AM 45.0°F7.2°C 42.3°F5.7°C 90% 2.0 mph SW3.2 kmh SW 6.0 mph9.7 kmh 29.74 in1007.1 mb 0.00 in0.0 mm 0.00 in0.0 mm 0.00 in0.0 mm
02:30 AM 45.0°F7.2°C 42.1°F5.6°C 90% 2.0 mph SW3.2 kmh SW 9.0 mph14.5 kmh 29.74 in1007.1 mb 0.00 in0.0 mm 0.00 in0.0 mm 0.00 in0.0 mm
02:35 AM 44.8°F7.1°C 42.1°F5.6°C 90% 3.0 mph SW4.8 kmh SW 9.0 mph14.5 kmh 29.74 in1007.1 mb 0.00 in0.0 mm 0.00 in0.0 mm 0.00 in0.0 mm
02:40 AM 44.8°F7.1°C 41.9°F5.5°C 90% 3.0 mph SW4.8 kmh SW 8.0 mph12.9 kmh 29.74 in1007.1 mb 0.00 in0.0 mm 0.00 in0.0 mm 0.00 in0.0 mm
02:45 AM 44.4°F6.9°C 41.7°F5.4°C 90% 3.0 mph SW4.8 kmh SW 7.0 mph11.3 kmh 29.74 in1007.1 mb 0.00 in0.0 mm 0.00 in0.0 mm 0.00 in0.0 mm
02:50 AM 44.4°F6.9°C 42.1°F5.6°C 91% 2.0 mph SW3.2 kmh SW 6.0 mph9.7 kmh 29.74 in1007.1 mb 0.00 in0.0 mm 0.00 in0.0 mm 0.00 in0.0 mm
02:55 AM 44.4°F6.9°C 42.1°F5.6°C 91% 2.0 mph SW3.2 kmh SW 5.0 mph8.0 kmh 29.74 in1007.1 mb 0.00 in0.0 mm 0.00 in0.0 mm 0.00 in0.0 mm
03:00 AM 44.8°F7.1°C 42.3°F5.7°C 91% 2.0 mph SW3.2 kmh SW 5.0 mph8.0 kmh 29.74 in1007.1 mb 0.00 in0.0 mm 0.00 in0.0 mm 0.00 in0.0 mm
03:05 AM 44.8°F7.1°C 42.3°F5.7°C 91% 2.0 mph SW3.2 kmh SW 5.0 mph8.0 kmh 29.74 in1007.1 mb 0.00 in0.0 mm 0.00 in0.0 mm 0.00 in0.0 mm
03:10 AM 45.0°F7.2°C 42.4°F5.8°C 91% 2.0 mph SW3.2 kmh SW 6.0 mph9.7 kmh 29.73 in1006.8 mb 0.00 in0.0 mm 0.00 in0.0 mm 0.00 in0.0 mm
03:15 AM 45.0°F7.2°C 42.3°F5.7°C 90% 2.0 mph SW3.2 kmh SW 6.0 mph9.7 kmh 29.73 in1006.8 mb 0.00 in0.0 mm 0.00 in0.0 mm 0.00 in0.0 mm
03:20 AM 45.1°F7.3°C 42.3°F5.7°C 90% 2.0 mph SW3.2 kmh SW 6.0 mph9.7 kmh 29.73 in1006.8 mb 0.00 in0.0 mm 0.00 in0.0 mm 0.00 in0.0 mm
03:25 AM 45.1°F7.3°C 42.3°F5.7°C 90% 1.0 mph SW1.6 kmh SW 6.0 mph9.7 kmh 29.73 in1006.8 mb 0.00 in0.0 mm 0.00 in0.0 mm 0.00 in0.0 mm
03:30 AM 45.3°F7.4°C 42.6°F5.9°C 90% 1.0 mph SW1.6 kmh SW 6.0 mph9.7 kmh 29.73 in1006.8 mb 0.00 in0.0 mm 0.00 in0.0 mm 0.00 in0.0 mm
03:35 AM 45.3°F7.4°C 42.6°F5.9°C 90% 2.0 mph SW3.2 kmh SW 6.0 mph9.7 kmh 29.73 in1006.8 mb 0.00 in0.0 mm 0.00 in0.0 mm 0.00 in0.0 mm
03:40 AM 45.5°F7.5°C 42.8°F6.0°C 90% 2.0 mph SW3.2 kmh SW 5.0 mph8.0 kmh 29.73 in1006.8 mb 0.00 in0.0 mm 0.00 in0.0 mm 0.00 in0.0 mm
03:45 AM 45.5°F7.5°C 42.8°F6.0°C 90% 1.0 mph SW1.6 kmh SW 4.0 mph6.4 kmh 29.73 in1006.8 mb 0.00 in0.0 mm 0.00 in0.0 mm 0.00 in0.0 mm
03:50 AM 45.5°F7.5°C 42.8°F6.0°C 90% 1.0 mph SW1.6 kmh SW 5.0 mph8.0 kmh 29.73 in1006.8 mb 0.00 in0.0 mm 0.00 in0.0 mm 0.00 in0.0 mm
03:55 AM 45.7°F7.6°C 42.8°F6.0°C 90% 2.0 mph SW3.2 kmh SW 6.0 mph9.7 kmh 29.73 in1006.8 mb 0.00 in0.0 mm 0.00 in0.0 mm 0.00 in0.0 mm
04:00 AM 45.7°F7.6°C 42.8°F6.0°C 90% 2.0 mph SW3.2 kmh SW 6.0 mph9.7 kmh 29.73 in1006.8 mb 0.00 in0.0 mm 0.00 in0.0 mm 0.00 in0.0 mm
04:05 AM 45.7°F7.6°C 43.0°F6.1°C 90% 2.0 mph SW3.2 kmh SW 5.0 mph8.0 kmh 29.73 in1006.8 mb 0.00 in0.0 mm 0.00 in0.0 mm 0.00 in0.0 mm
04:10 AM 45.7°F7.6°C 43.0°F6.1°C 90% 2.0 mph SW3.2 kmh SW 7.0 mph11.3 kmh 29.73 in1006.8 mb 0.00 in0.0 mm 0.00 in0.0 mm 0.00 in0.0 mm
04:15 AM 45.7°F7.6°C 43.0°F6.1°C 90% 3.0 mph SW4.8 kmh SW 9.0 mph14.5 kmh 29.73 in1006.8 mb 0.00 in0.0 mm 0.00 in0.0 mm 0.00 in0.0 mm
04:20 AM 45.9°F7.7°C 42.8°F6.0°C 89% 3.0 mph SW4.8 kmh SW 9.0 mph14.5 kmh 29.72 in1006.4 mb 0.00 in0.0 mm 0.00 in0.0 mm 0.00 in0.0 mm
04:25 AM 45.9°F7.7°C 42.8°F6.0°C 89% 3.0 mph SW4.8 kmh SW 9.0 mph14.5 kmh 29.72 in1006.4 mb 0.00 in0.0 mm 0.00 in0.0 mm 0.00 in0.0 mm
04:30 AM 45.9°F7.7°C 42.8°F6.0°C 89% 3.0 mph SW4.8 kmh SW 9.0 mph14.5 kmh 29.72 in1006.4 mb 0.00 in0.0 mm 0.00 in0.0 mm 0.00 in0.0 mm
04:35 AM 45.9°F7.7°C 42.8°F6.0°C 89% 3.0 mph SW4.8 kmh SW 8.0 mph12.9 kmh 29.72 in1006.4 mb 0.00 in0.0 mm 0.00 in0.0 mm 0.00 in0.0 mm
04:40 AM 45.9°F7.7°C 42.8°F6.0°C 89% 3.0 mph SW4.8 kmh SW 10.0 mph16.1 kmh 29.72 in1006.4 mb 0.00 in0.0 mm 0.00 in0.0 mm 0.00 in0.0 mm
04:45 AM 45.9°F7.7°C 42.8°F6.0°C 89% 4.0 mph SW6.4 kmh SW 10.0 mph16.1 kmh 29.72 in1006.4 mb 0.00 in0.0 mm 0.00 in0.0 mm 0.00 in0.0 mm
04:50 AM 45.9°F7.7°C 42.8°F6.0°C 89% 4.0 mph SW6.4 kmh SW 9.0 mph14.5 kmh 29.72 in1006.4 mb 0.00 in0.0 mm 0.00 in0.0 mm 0.00 in0.0 mm
04:55 AM 45.9°F7.7°C 42.8°F6.0°C 89% 5.0 mph SW8.0 kmh SW 10.0 mph16.1 kmh 29.71 in1006.1 mb 0.00 in0.0 mm 0.00 in0.0 mm 0.00 in0.0 mm
05:00 AM 45.7°F7.6°C 42.6°F5.9°C 89% 5.0 mph SW8.0 kmh SW 10.0 mph16.1 kmh 29.71 in1006.1 mb 0.00 in0.0 mm 0.00 in0.0 mm 0.00 in0.0 mm
05:05 AM 45.7°F7.6°C 42.6°F5.9°C 89% 5.0 mph SW8.0 kmh SW 10.0 mph16.1 kmh 29.71 in1006.1 mb 0.00 in0.0 mm 0.00 in0.0 mm 0.00 in0.0 mm
05:10 AM 45.3°F7.4°C 42.3°F5.7°C 89% 4.0 mph SW6.4 kmh SW 9.0 mph14.5 kmh 29.72 in1006.4 mb 0.00 in0.0 mm 0.00 in0.0 mm 0.00 in0.0 mm
05:15 AM 45.1°F7.3°C 42.1°F5.6°C 89% 4.0 mph SW6.4 kmh SW 10.0 mph16.1 kmh 29.72 in1006.4 mb 0.00 in0.0 mm 0.00 in0.0 mm 0.00 in0.0 mm
05:20 AM 45.0°F7.2°C 41.9°F5.5°C 89% 4.0 mph SW6.4 kmh SW 10.0 mph16.1 kmh 29.72 in1006.4 mb 0.00 in0.0 mm 0.00 in0.0 mm 0.00 in0.0 mm
05:25 AM 44.8°F7.1°C 41.7°F5.4°C 89% 3.0 mph SW4.8 kmh SW 8.0 mph12.9 kmh 29.72 in1006.4 mb 0.00 in0.0 mm 0.00 in0.0 mm 0.00 in0.0 mm
05:30 AM 44.8°F7.1°C 41.7°F5.4°C 89% 3.0 mph SW4.8 kmh SW 7.0 mph11.3 kmh 29.71 in1006.1 mb 0.00 in0.0 mm 0.00 in0.0 mm 0.00 in0.0 mm
05:35 AM 44.4°F6.9°C 41.7°F5.4°C 90% 4.0 mph SW6.4 kmh SW 7.0 mph11.3 kmh 29.71 in1006.1 mb 0.00 in0.0 mm 0.00 in0.0 mm 0.00 in0.0 mm
05:40 AM 44.2°F6.8°C 41.5°F5.3°C 90% 3.0 mph SW4.8 kmh SW 7.0 mph11.3 kmh 29.72 in1006.4 mb 0.00 in0.0 mm 0.00 in0.0 mm 0.00 in0.0 mm
05:45 AM 44.2°F6.8°C 41.5°F5.3°C 90% 3.0 mph SW4.8 kmh SW 8.0 mph12.9 kmh 29.71 in1006.1 mb 0.00 in0.0 mm 0.00 in0.0 mm 0.00 in0.0 mm
05:50 AM 44.1°F6.7°C 41.2°F5.1°C 90% 3.0 mph SW4.8 kmh SW 8.0 mph12.9 kmh 29.71 in1006.1 mb 0.00 in0.0 mm 0.00 in0.0 mm 0.00 in0.0 mm
05:55 AM 43.9°F6.6°C 41.2°F5.1°C 90% 2.0 mph SW3.2 kmh SW 5.0 mph8.0 kmh 29.71 in1006.1 mb 0.00 in0.0 mm 0.00 in0.0 mm 0.00 in0.0 mm
06:00 AM 43.9°F6.6°C 41.0°F5.0°C 90% 2.0 mph SW3.2 kmh SW 5.0 mph8.0 kmh 29.71 in1006.1 mb 0.00 in0.0 mm 0.00 in0.0 mm 0.00 in0.0 mm
06:05 AM 43.7°F6.5°C 41.2°F5.1°C 91% 2.0 mph SW3.2 kmh SW 5.0 mph8.0 kmh 29.71 in1006.1 mb 0.00 in0.0 mm 0.00 in0.0 mm 0.00 in0.0 mm
06:10 AM 43.5°F6.4°C 41.0°F5.0°C 91% 3.0 mph SW4.8 kmh SW 6.0 mph9.7 kmh 29.71 in1006.1 mb 0.00 in0.0 mm 0.00 in0.0 mm 0.00 in0.0 mm
06:15 AM 43.3°F6.3°C 41.0°F5.0°C 91% 2.0 mph SW3.2 kmh SW 6.0 mph9.7 kmh 29.71 in1006.1 mb 0.00 in0.0 mm 0.00 in0.0 mm 0.00 in0.0 mm
06:20 AM 43.3°F6.3°C 41.0°F5.0°C 91% 2.0 mph SW3.2 kmh SW 7.0 mph11.3 kmh 29.71 in1006.1 mb 0.00 in0.0 mm 0.00 in0.0 mm 0.00 in0.0 mm
06:25 AM 43.5°F6.4°C 41.0°F5.0°C 91% 3.0 mph SW4.8 kmh SW 7.0 mph11.3 kmh 29.71 in1006.1 mb 0.00 in0.0 mm 0.00 in0.0 mm 0.00 in0.0 mm
06:30 AM 43.5°F6.4°C 41.2°F5.1°C 91% 3.0 mph SW4.8 kmh SW 7.0 mph11.3 kmh 29.71 in1006.1 mb 0.00 in0.0 mm 0.00 in0.0 mm 0.00 in0.0 mm
06:35 AM 43.7°F6.5°C 41.2°F5.1°C 91% 4.0 mph SW6.4 kmh SW 7.0 mph11.3 kmh 29.71 in1006.1 mb 0.00 in0.0 mm 0.00 in0.0 mm 0.00 in0.0 mm
06:40 AM 43.9°F6.6°C 41.4°F5.2°C 91% 4.0 mph SW6.4 kmh SW 8.0 mph12.9 kmh 29.71 in1006.1 mb 0.00 in0.0 mm 0.00 in0.0 mm 0.00 in0.0 mm
06:45 AM 43.9°F6.6°C 41.4°F5.2°C 91% 4.0 mph SW6.4 kmh SW 9.0 mph14.5 kmh 29.71 in1006.1 mb 0.00 in0.0 mm 0.00 in0.0 mm 0.00 in0.0 mm
06:50 AM 44.1°F6.7°C 41.7°F5.4°C 91% 5.0 mph SW8.0 kmh SW 11.0 mph17.7 kmh 29.71 in1006.1 mb 0.00 in0.0 mm 0.00 in0.0 mm 0.00 in0.0 mm
06:55 AM 44.2°F6.8°C 41.5°F5.3°C 90% 5.0 mph SW8.0 kmh SW 11.0 mph17.7 kmh 29.71 in1006.1 mb 0.00 in0.0 mm 0.00 in0.0 mm 0.00 in0.0 mm
07:00 AM 44.4°F6.9°C 41.7°F5.4°C 90% 4.0 mph SW6.4 kmh SW 10.0 mph16.1 kmh 29.71 in1006.1 mb 0.00 in0.0 mm 0.00 in0.0 mm 0.00 in0.0 mm
07:05 AM 44.6°F7.0°C 41.9°F5.5°C 90% 4.0 mph SW6.4 kmh SW 10.0 mph16.1 kmh 29.71 in1006.1 mb 0.00 in0.0 mm 0.00 in0.0 mm 0.00 in0.0 mm
07:10 AM 45.0°F7.2°C 41.9°F5.5°C 89% 4.0 mph SW6.4 kmh SW 11.0 mph17.7 kmh 29.71 in1006.1 mb 0.00 in0.0 mm 0.00 in0.0 mm 0.00 in0.0 mm
07:15 AM 45.1°F7.3°C 42.1°F5.6°C 89% 5.0 mph SW8.0 kmh SW 11.0 mph17.7 kmh 29.71 in1006.1 mb 0.00 in0.0 mm 0.00 in0.0 mm 0.00 in0.0 mm
07:20 AM 45.5°F7.5°C 42.1°F5.6°C 88% 5.0 mph SW8.0 kmh SW 10.0 mph16.1 kmh 29.71 in1006.1 mb 0.00 in0.0 mm 0.00 in0.0 mm 0.00 in0.0 mm
07:25 AM 45.9°F7.7°C 42.4°F5.8°C 88% 5.0 mph SW8.0 kmh SW 10.0 mph16.1 kmh 29.71 in1006.1 mb 0.00 in0.0 mm 0.00 in0.0 mm 0.00 in0.0 mm
07:30 AM 46.2°F7.9°C 42.6°F5.9°C 87% 5.0 mph SW8.0 kmh SW 11.0 mph17.7 kmh 29.71 in1006.1 mb 0.00 in0.0 mm 0.00 in0.0 mm 0.00 in0.0 mm
07:35 AM 46.8°F8.2°C 42.8°F6.0°C 86% 5.0 mph SW8.0 kmh SW 11.0 mph17.7 kmh 29.71 in1006.1 mb 0.00 in0.0 mm 0.00 in0.0 mm 0.00 in0.0 mm
07:40 AM 47.1°F8.4°C 43.0°F6.1°C 85% 5.0 mph SW8.0 kmh SW 9.0 mph14.5 kmh 29.71 in1006.1 mb 0.00 in0.0 mm 0.00 in0.0 mm 0.00 in0.0 mm
07:45 AM 47.7°F8.7°C 43.2°F6.2°C 84% 4.0 mph SW6.4 kmh SW 9.0 mph14.5 kmh 29.71 in1006.1 mb 0.00 in0.0 mm 0.00 in0.0 mm 0.00 in0.0 mm
07:50 AM 47.8°F8.8°C 43.0°F6.1°C 83% 4.0 mph SW6.4 kmh SW 11.0 mph17.7 kmh 29.71 in1006.1 mb 0.00 in0.0 mm 0.00 in0.0 mm 0.00 in0.0 mm
07:55 AM 48.0°F8.9°C 42.8°F6.0°C 82% 5.0 mph SW8.0 kmh SW 11.0 mph17.7 kmh 29.71 in1006.1 mb 0.00 in0.0 mm 0.00 in0.0 mm 0.00 in0.0 mm
08:00 AM 48.6°F9.2°C 43.3°F6.3°C 82% 5.0 mph SW8.0 kmh SW 11.0 mph17.7 kmh 29.71 in1006.1 mb 0.00 in0.0 mm 0.00 in0.0 mm 0.00 in0.0 mm
08:05 AM 49.3°F9.6°C 43.7°F6.5°C 81% 5.0 mph SW8.0 kmh SW 10.0 mph16.1 kmh 29.71 in1006.1 mb 0.00 in0.0 mm 0.00 in0.0 mm 0.00 in0.0 mm
08:10 AM 49.6°F9.8°C 43.5°F6.4°C 79% 4.0 mph SW6.4 kmh SW 12.0 mph19.3 kmh 29.71 in1006.1 mb 0.00 in0.0 mm 0.00 in0.0 mm 0.00 in0.0 mm
08:15 AM 50.2°F10.1°C 43.9°F6.6°C 79% 5.0 mph SW8.0 kmh SW 12.0 mph19.3 kmh 29.71 in1006.1 mb 0.00 in0.0 mm 0.00 in0.0 mm 0.00 in0.0 mm
08:20 AM 50.5°F10.3°C 43.5°F6.4°C 77% 5.0 mph SW8.0 kmh SW 12.0 mph19.3 kmh 29.71 in1006.1 mb 0.00 in0.0 mm 0.00 in0.0 mm 0.00 in0.0 mm
08:25 AM 50.7°F10.4°C 43.5°F6.4°C 76% 7.0 mph SW11.3 kmh SW 15.0 mph24.1 kmh 29.71 in1006.1 mb 0.00 in0.0 mm 0.00 in0.0 mm 0.00 in0.0 mm
08:30 AM 51.1°F10.6°C 43.3°F6.3°C 75% 7.0 mph SW11.3 kmh SW 15.0 mph24.1 kmh 29.70 in1005.8 mb 0.00 in0.0 mm 0.00 in0.0 mm 0.00 in0.0 mm
08:35 AM 51.4°F10.8°C 43.3°F6.3°C 74% 7.0 mph SW11.3 kmh SW 15.0 mph24.1 kmh 29.70 in1005.8 mb 0.00 in0.0 mm 0.00 in0.0 mm 0.00 in0.0 mm
08:40 AM 51.4°F10.8°C 43.3°F6.3°C 74% 9.0 mph SW14.5 kmh SW 17.0 mph27.4 kmh 29.70 in1005.8 mb 0.00 in0.0 mm 0.00 in0.0 mm 0.00 in0.0 mm
08:45 AM 51.6°F10.9°C 43.7°F6.5°C 74% 9.0 mph SW14.5 kmh SW 17.0 mph27.4 kmh 29.70 in1005.8 mb 0.00 in0.0 mm 0.00 in0.0 mm 0.00 in0.0 mm
08:50 AM 52.0°F11.1°C 43.7°F6.5°C 73% 6.0 mph SW9.7 kmh SW 12.0 mph19.3 kmh 29.70 in1005.8 mb 0.00 in0.0 mm 0.00 in0.0 mm 0.00 in0.0 mm
08:55 AM 52.3°F11.3°C 43.5°F6.4°C 72% 7.0 mph SW11.3 kmh SW 17.0 mph27.4 kmh 29.70 in1005.8 mb 0.00 in0.0 mm 0.00 in0.0 mm 0.00 in0.0 mm
09:00 AM 52.9°F11.6°C 44.1°F6.7°C 72% 8.0 mph SW12.9 kmh SW 17.0 mph27.4 kmh 29.70 in1005.8 mb 0.00 in0.0 mm 0.00 in0.0 mm 0.00 in0.0 mm
09:05 AM 53.1°F11.7°C 43.5°F6.4°C 70% 8.0 mph SW12.9 kmh SW 19.0 mph30.6 kmh 29.71 in1006.1 mb 0.00 in0.0 mm 0.00 in0.0 mm 0.00 in0.0 mm
09:10 AM 53.1°F11.7°C 43.5°F6.4°C 70% 11.0 mph SW17.7 kmh SW 22.0 mph35.4 kmh 29.71 in1006.1 mb 0.00 in0.0 mm 0.00 in0.0 mm 0.00 in0.0 mm
09:15 AM 53.4°F11.9°C 43.5°F6.4°C 69% 11.0 mph SW17.7 kmh SW 22.0 mph35.4 kmh 29.70 in1005.8 mb 0.00 in0.0 mm 0.00 in0.0 mm 0.00 in0.0 mm
09:20 AM 53.8°F12.1°C 43.2°F6.2°C 67% 10.0 mph SW16.1 kmh SW 22.0 mph35.4 kmh 29.70 in1005.8 mb 0.00 in0.0 mm 0.00 in0.0 mm 0.00 in0.0 mm
09:25 AM 54.0°F12.2°C 43.0°F6.1°C 66% 10.0 mph SW16.1 kmh SW 22.0 mph35.4 kmh 29.70 in1005.8 mb 0.00 in0.0 mm 0.00 in0.0 mm 0.00 in0.0 mm
09:30 AM 54.1°F12.3°C 43.2°F6.2°C 66% 9.0 mph SW14.5 kmh SW 18.0 mph29.0 kmh 29.70 in1005.8 mb 0.00 in0.0 mm 0.00 in0.0 mm 0.00 in0.0 mm
09:35 AM 54.7°F12.6°C 42.6°F5.9°C 64% 8.0 mph SW12.9 kmh SW 23.0 mph37.0 kmh 29.70 in1005.8 mb 0.00 in0.0 mm 0.00 in0.0 mm 0.00 in0.0 mm
09:40 AM 54.9°F12.7°C 42.6°F5.9°C 63% 10.0 mph SW16.1 kmh SW 23.0 mph37.0 kmh 29.70 in1005.8 mb 0.00 in0.0 mm 0.00 in0.0 mm 0.00 in0.0 mm
09:45 AM 55.4°F13.0°C 43.0°F6.1°C 63% 11.0 mph SW17.7 kmh SW 19.0 mph30.6 kmh 29.70 in1005.8 mb 0.00 in0.0 mm 0.00 in0.0 mm 0.00 in0.0 mm
09:50 AM 55.6°F13.1°C 42.6°F5.9°C 62% 11.0 mph SW17.7 kmh SW 22.0 mph35.4 kmh 29.70 in1005.8 mb 0.00 in0.0 mm 0.00 in0.0 mm 0.00 in0.0 mm
09:55 AM 55.8°F13.2°C 42.6°F5.9°C 61% 11.0 mph WSW17.7 kmh WSW 22.0 mph35.4 kmh 29.70 in1005.8 mb 0.00 in0.0 mm 0.00 in0.0 mm 0.00 in0.0 mm
10:00 AM 56.1°F13.4°C 43.3°F6.3°C 62% 9.0 mph SW14.5 kmh SW 20.0 mph32.2 kmh 29.70 in1005.8 mb 0.00 in0.0 mm 0.00 in0.0 mm 0.00 in0.0 mm
10:05 AM 56.1°F13.4°C 41.9°F5.5°C 59% 9.0 mph WSW14.5 kmh WSW 22.0 mph35.4 kmh 29.70 in1005.8 mb 0.00 in0.0 mm 0.00 in0.0 mm 0.00 in0.0 mm
10:10 AM 56.3°F13.5°C 42.6°F5.9°C 60% 10.0 mph WSW16.1 kmh WSW 22.0 mph35.4 kmh 29.70 in1005.8 mb 0.00 in0.0 mm 0.00 in0.0 mm 0.00 in0.0 mm
10:15 AM 56.7°F13.7°C 43.0°F6.1°C 60% 10.0 mph SW16.1 kmh SW 16.0 mph25.7 kmh 29.70 in1005.8 mb 0.00 in0.0 mm 0.00 in0.0 mm 0.00 in0.0 mm
10:20 AM 57.4°F14.1°C 42.6°F5.9°C 58% 9.0 mph SW14.5 kmh SW 23.0 mph37.0 kmh 29.70 in1005.8 mb 0.00 in0.0 mm 0.00 in0.0 mm 0.00 in0.0 mm
10:25 AM 57.6°F14.2°C 42.4°F5.8°C 57% 10.0 mph SW16.1 kmh SW 23.0 mph37.0 kmh 29.70 in1005.8 mb 0.00 in0.0 mm 0.00 in0.0 mm 0.00 in0.0 mm
10:30 AM 57.6°F14.2°C 41.5°F5.3°C 55% 11.0 mph SW17.7 kmh SW 18.0 mph29.0 kmh 29.70 in1005.8 mb 0.00 in0.0 mm 0.00 in0.0 mm 0.00 in0.0 mm
10:35 AM 57.9°F14.4°C 41.9°F5.5°C 55% 10.0 mph SW16.1 kmh SW 18.0 mph29.0 kmh 29.70 in1005.8 mb 0.00 in0.0 mm 0.00 in0.0 mm 0.00 in0.0 mm
10:40 AM 58.3°F14.6°C 41.5°F5.3°C 54% 9.0 mph SW14.5 kmh SW 20.0 mph32.2 kmh 29.70 in1005.8 mb 0.00 in0.0 mm 0.00 in0.0 mm 0.00 in0.0 mm
10:45 AM 58.5°F14.7°C 41.4°F5.2°C 53% 10.0 mph SW16.1 kmh SW 22.0 mph35.4 kmh 29.70 in1005.8 mb 0.00 in0.0 mm 0.00 in0.0 mm 0.00 in0.0 mm
10:50 AM 58.6°F14.8°C 41.2°F5.1°C 52% 10.0 mph SW16.1 kmh SW 22.0 mph35.4 kmh 29.70 in1005.8 mb 0.00 in0.0 mm 0.00 in0.0 mm 0.00 in0.0 mm
10:55 AM 58.8°F14.9°C 41.2°F5.1°C 52% 11.0 mph SW17.7 kmh SW 22.0 mph35.4 kmh 29.70 in1005.8 mb 0.00 in0.0 mm 0.00 in0.0 mm 0.00 in0.0 mm
11:00 AM 59.2°F15.1°C 40.6°F4.8°C 50% 11.0 mph SW17.7 kmh SW 21.0 mph33.8 kmh 29.69 in1005.4 mb 0.00 in0.0 mm 0.00 in0.0 mm 0.00 in0.0 mm
11:05 AM 59.5°F15.3°C 40.5°F4.7°C 49% 10.0 mph SW16.1 kmh SW 20.0 mph32.2 kmh 29.69 in1005.4 mb 0.00 in0.0 mm 0.00 in0.0 mm 0.00 in0.0 mm
11:10 AM 59.7°F15.4°C 40.6°F4.8°C 49% 9.0 mph SW14.5 kmh SW 17.0 mph27.4 kmh 29.69 in1005.4 mb 0.00 in0.0 mm 0.00 in0.0 mm 0.00 in0.0 mm
11:15 AM 60.6°F15.9°C 41.4°F5.2°C 49% 8.0 mph SW12.9 kmh SW 16.0 mph25.7 kmh 29.69 in1005.4 mb 0.00 in0.0 mm 0.00 in0.0 mm 0.00 in0.0 mm
11:20 AM 60.6°F15.9°C 40.3°F4.6°C 47% 7.0 mph SW11.3 kmh SW 19.0 mph30.6 kmh 29.70 in1005.8 mb 0.00 in0.0 mm 0.00 in0.0 mm 0.00 in0.0 mm
11:25 AM 61.0°F16.1°C 41.0°F5.0°C 48% 9.0 mph SW14.5 kmh SW 19.0 mph30.6 kmh 29.69 in1005.4 mb 0.00 in0.0 mm 0.00 in0.0 mm 0.00 in0.0 mm
11:30 AM 61.5°F16.4°C 41.2°F5.1°C 47% 7.0 mph SW11.3 kmh SW 18.0 mph29.0 kmh 29.69 in1005.4 mb 0.00 in0.0 mm 0.00 in0.0 mm 0.00 in0.0 mm
11:35 AM 61.9°F16.6°C 40.3°F4.6°C 45% 5.0 mph SW8.0 kmh SW 13.0 mph20.9 kmh 29.69 in1005.4 mb 0.00 in0.0 mm 0.00 in0.0 mm 0.00 in0.0 mm
11:40 AM 61.9°F16.6°C 39.6°F4.2°C 44% 8.0 mph SW12.9 kmh SW 20.0 mph32.2 kmh 29.69 in1005.4 mb 0.00 in0.0 mm 0.00 in0.0 mm 0.00 in0.0 mm
11:45 AM 62.4°F16.9°C 40.3°F4.6°C 44% 8.0 mph SW12.9 kmh SW 20.0 mph32.2 kmh 29.68 in1005.1 mb 0.00 in0.0 mm 0.00 in0.0 mm 0.00 in0.0 mm
11:50 AM 62.4°F16.9°C 39.7°F4.3°C 43% 7.0 mph SW11.3 kmh SW 17.0 mph27.4 kmh 29.68 in1005.1 mb 0.00 in0.0 mm 0.00 in0.0 mm 0.00 in0.0 mm
11:55 AM 62.8°F17.1°C 39.4°F4.1°C 42% 8.0 mph SW12.9 kmh SW 16.0 mph25.7 kmh 29.68 in1005.1 mb 0.00 in0.0 mm 0.00 in0.0 mm 0.00 in0.0 mm
12:00 PM 63.0°F17.2°C 38.8°F3.8°C 41% 8.0 mph WSW12.9 kmh WSW 18.0 mph29.0 kmh 29.67 in1004.7 mb 0.00 in0.0 mm 0.00 in0.0 mm 0.00 in0.0 mm
12:05 PM 63.3°F17.4°C 39.2°F4.0°C 41% 9.0 mph SW14.5 kmh SW 18.0 mph29.0 kmh 29.68 in1005.1 mb 0.00 in0.0 mm 0.00 in0.0 mm 0.00 in0.0 mm
12:10 PM 63.1°F17.3°C 37.2°F2.9°C 38% 11.0 mph SW17.7 kmh SW 21.0 mph33.8 kmh 29.67 in1004.7 mb 0.00 in0.0 mm 0.00 in0.0 mm 0.00 in0.0 mm
12:15 PM 63.3°F17.4°C 37.9°F3.3°C 39% 11.0 mph SW17.7 kmh SW 27.0 mph43.5 kmh 29.67 in1004.7 mb 0.00 in0.0 mm 0.00 in0.0 mm 0.00 in0.0 mm
12:20 PM 63.3°F17.4°C 37.4°F3.0°C 38% 12.0 mph SW19.3 kmh SW 27.0 mph43.5 kmh 29.67 in1004.7 mb 0.00 in0.0 mm 0.00 in0.0 mm 0.00 in0.0 mm
12:25 PM 63.7°F17.6°C 36.9°F2.7°C 37% 12.0 mph SW19.3 kmh SW 21.0 mph33.8 kmh 29.67 in1004.7 mb 0.00 in0.0 mm 0.00 in0.0 mm 0.00 in0.0 mm
12:30 PM 64.0°F17.8°C 36.5°F2.5°C 36% 11.0 mph SW17.7 kmh SW 20.0 mph32.2 kmh 29.66 in1004.4 mb 0.00 in0.0 mm 0.00 in0.0 mm 0.00 in0.0 mm
12:35 PM 64.4°F18.0°C 36.1°F2.3°C 35% 9.0 mph SW14.5 kmh SW 19.0 mph30.6 kmh 29.66 in1004.4 mb 0.00 in0.0 mm 0.00 in0.0 mm 0.00 in0.0 mm
12:40 PM 64.2°F17.9°C 36.0°F2.2°C 35% 8.0 mph SW12.9 kmh SW 22.0 mph35.4 kmh 29.67 in1004.7 mb 0.00 in0.0 mm 0.00 in0.0 mm 0.00 in0.0 mm
12:45 PM 64.4°F18.0°C 35.4°F1.9°C 34% 10.0 mph SW16.1 kmh SW 22.0 mph35.4 kmh 29.66 in1004.4 mb 0.00 in0.0 mm 0.00 in0.0 mm 0.00 in0.0 mm
12:50 PM 64.6°F18.1°C 36.1°F2.3°C 35% 10.0 mph SW16.1 kmh SW 19.0 mph30.6 kmh 29.66 in1004.4 mb 0.00 in0.0 mm 0.00 in0.0 mm 0.00 in0.0 mm
12:55 PM 64.2°F17.9°C 36.0°F2.2°C 35% 10.0 mph SW16.1 kmh SW 20.0 mph32.2 kmh 29.66 in1004.4 mb 0.00 in0.0 mm 0.00 in0.0 mm 0.00 in0.0 mm
01:00 PM 64.2°F17.9°C 36.7°F2.6°C 36% 9.0 mph SW14.5 kmh SW 20.0 mph32.2 kmh 29.66 in1004.4 mb 0.00 in0.0 mm 0.00 in0.0 mm 0.00 in0.0 mm
01:05 PM 64.6°F18.1°C 36.9°F2.7°C 36% 8.0 mph SW12.9 kmh SW 17.0 mph27.4 kmh 29.66 in1004.4 mb 0.00 in0.0 mm 0.00 in0.0 mm 0.00 in0.0 mm
01:10 PM 64.6°F18.1°C 34.9°F1.6°C 33% 7.0 mph SW11.3 kmh SW 16.0 mph25.7 kmh 29.65 in1004.1 mb 0.00 in0.0 mm 0.00 in0.0 mm 0.00 in0.0 mm
01:15 PM 64.8°F18.2°C 34.9°F1.6°C 33% 8.0 mph SW12.9 kmh SW 16.0 mph25.7 kmh 29.65 in1004.1 mb 0.00 in0.0 mm 0.00 in0.0 mm 0.00 in0.0 mm
01:20 PM 64.8°F18.2°C 34.2°F1.2°C 32% 6.0 mph WSW9.7 kmh WSW 15.0 mph24.1 kmh 29.65 in1004.1 mb 0.00 in0.0 mm 0.00 in0.0 mm 0.00 in0.0 mm
01:25 PM 65.1°F18.4°C 33.8°F1.0°C 31% 5.0 mph SW8.0 kmh SW 15.0 mph24.1 kmh 29.65 in1004.1 mb 0.00 in0.0 mm 0.00 in0.0 mm 0.00 in0.0 mm
01:30 PM 65.8°F18.8°C 35.1°F1.7°C 32% 5.0 mph SW8.0 kmh SW 15.0 mph24.1 kmh 29.64 in1003.7 mb 0.00 in0.0 mm 0.00 in0.0 mm 0.00 in0.0 mm
01:35 PM 66.0°F18.9°C 32.9°F0.5°C 29% 4.0 mph WSW6.4 kmh WSW 15.0 mph24.1 kmh 29.64 in1003.7 mb 0.00 in0.0 mm 0.00 in0.0 mm 0.00 in0.0 mm
01:40 PM 65.8°F18.8°C 34.3°F1.3°C 31% 5.0 mph WSW8.0 kmh WSW 15.0 mph24.1 kmh 29.64 in1003.7 mb 0.00 in0.0 mm 0.00 in0.0 mm 0.00 in0.0 mm
01:45 PM 66.0°F18.9°C 33.6°F0.9°C 30% 6.0 mph SW9.7 kmh SW 12.0 mph19.3 kmh 29.64 in1003.7 mb 0.00 in0.0 mm 0.00 in0.0 mm 0.00 in0.0 mm
01:50 PM 66.2°F19.0°C 33.8°F1.0°C 30% 6.0 mph SW9.7 kmh SW 12.0 mph19.3 kmh 29.64 in1003.7 mb 0.00 in0.0 mm 0.00 in0.0 mm 0.00 in0.0 mm
01:55 PM 66.6°F19.2°C 34.2°F1.2°C 30% 5.0 mph SW8.0 kmh SW 12.0 mph19.3 kmh 29.64 in1003.7 mb 0.00 in0.0 mm 0.00 in0.0 mm 0.00 in0.0 mm
02:00 PM 66.9°F19.4°C 34.5°F1.4°C 30% 4.0 mph SW6.4 kmh SW 11.0 mph17.7 kmh 29.63 in1003.4 mb 0.00 in0.0 mm 0.00 in0.0 mm 0.00 in0.0 mm
02:05 PM 67.1°F19.5°C 34.5°F1.4°C 30% 4.0 mph SW6.4 kmh SW 10.0 mph16.1 kmh 29.64 in1003.7 mb 0.00 in0.0 mm 0.00 in0.0 mm 0.00 in0.0 mm
02:10 PM 67.5°F19.7°C 34.0°F1.1°C 29% 5.0 mph SW8.0 kmh SW 13.0 mph20.9 kmh 29.63 in1003.4 mb 0.00 in0.0 mm 0.00 in0.0 mm 0.00 in0.0 mm
02:15 PM 67.1°F19.5°C 32.9°F0.5°C 28% 7.0 mph SW11.3 kmh SW 18.0 mph29.0 kmh 29.63 in1003.4 mb 0.00 in0.0 mm 0.00 in0.0 mm 0.00 in0.0 mm
02:20 PM 67.3°F19.6°C 33.8°F1.0°C 29% 8.0 mph SW12.9 kmh SW 18.0 mph29.0 kmh 29.63 in1003.4 mb 0.00 in0.0 mm 0.00 in0.0 mm 0.00 in0.0 mm
02:25 PM 67.5°F19.7°C 34.0°F1.1°C 29% 8.0 mph SW12.9 kmh SW 15.0 mph24.1 kmh 29.63 in1003.4 mb 0.00 in0.0 mm 0.00 in0.0 mm 0.00 in0.0 mm
02:30 PM 67.6°F19.8°C 34.3°F1.3°C 29% 8.0 mph SW12.9 kmh SW 15.0 mph24.1 kmh 29.63 in1003.4 mb 0.00 in0.0 mm 0.00 in0.0 mm 0.00 in0.0 mm
02:35 PM 67.6°F19.8°C 33.3°F0.7°C 28% 8.0 mph SW12.9 kmh SW 16.0 mph25.7 kmh 29.63 in1003.4 mb 0.00 in0.0 mm 0.00 in0.0 mm 0.00 in0.0 mm
02:40 PM 67.8°F19.9°C 33.6°F0.9°C 28% 7.0 mph SW11.3 kmh SW 16.0 mph25.7 kmh 29.63 in1003.4 mb 0.00 in0.0 mm 0.00 in0.0 mm 0.00 in0.0 mm
02:45 PM 67.8°F19.9°C 32.7°F0.4°C 27% 6.0 mph SW9.7 kmh SW 16.0 mph25.7 kmh 29.63 in1003.4 mb 0.00 in0.0 mm 0.00 in0.0 mm 0.00 in0.0 mm
02:50 PM 67.8°F19.9°C 31.6°F-0.2°C 26% 8.0 mph SW12.9 kmh SW 16.0 mph25.7 kmh 29.63 in1003.4 mb 0.00 in0.0 mm 0.00 in0.0 mm 0.00 in0.0 mm
02:55 PM 68.0°F20.0°C 31.8°F-0.1°C 26% 9.0 mph SW14.5 kmh SW 19.0 mph30.6 kmh 29.62 in1003.0 mb 0.00 in0.0 mm 0.00 in0.0 mm 0.00 in0.0 mm
03:00 PM 67.6°F19.8°C 31.5°F-0.3°C 26% 10.0 mph SW16.1 kmh SW 19.0 mph30.6 kmh 29.62 in1003.0 mb 0.00 in0.0 mm 0.00 in0.0 mm 0.00 in0.0 mm
03:05 PM 67.8°F19.9°C 32.5°F0.3°C 27% 9.0 mph SW14.5 kmh SW 18.0 mph29.0 kmh 29.62 in1003.0 mb 0.00 in0.0 mm 0.00 in0.0 mm 0.00 in0.0 mm
03:10 PM 67.8°F19.9°C 32.7°F0.4°C 27% 8.0 mph SW12.9 kmh SW 16.0 mph25.7 kmh 29.62 in1003.0 mb 0.00 in0.0 mm 0.00 in0.0 mm 0.00 in0.0 mm
03:15 PM 68.2°F20.1°C 31.8°F-0.1°C 26% 8.0 mph SW12.9 kmh SW 16.0 mph25.7 kmh 29.63 in1003.4 mb 0.00 in0.0 mm 0.00 in0.0 mm 0.00 in0.0 mm
03:20 PM 67.8°F19.9°C 30.7°F-0.7°C 25% 9.0 mph SW14.5 kmh SW 18.0 mph29.0 kmh 29.63 in1003.4 mb 0.00 in0.0 mm 0.00 in0.0 mm 0.00 in0.0 mm
03:25 PM 67.8°F19.9°C 30.7°F-0.7°C 25% 10.0 mph SW16.1 kmh SW 18.0 mph29.0 kmh 29.63 in1003.4 mb 0.00 in0.0 mm 0.00 in0.0 mm 0.00 in0.0 mm
03:30 PM 67.5°F19.7°C 31.3°F-0.4°C 26% 8.0 mph SW12.9 kmh SW 18.0 mph29.0 kmh 29.63 in1003.4 mb 0.00 in0.0 mm 0.00 in0.0 mm 0.00 in0.0 mm
03:35 PM 67.1°F19.5°C 32.0°F0.0°C 27% 8.0 mph SW12.9 kmh SW 15.0 mph24.1 kmh 29.63 in1003.4 mb 0.00 in0.0 mm 0.00 in0.0 mm 0.00 in0.0 mm
03:40 PM 67.3°F19.6°C 32.2°F0.1°C 27% 7.0 mph SW11.3 kmh SW 15.0 mph24.1 kmh 29.63 in1003.4 mb 0.00 in0.0 mm 0.00 in0.0 mm 0.00 in0.0 mm
03:45 PM 67.5°F19.7°C 32.2°F0.1°C 27% 6.0 mph SW9.7 kmh SW 16.0 mph25.7 kmh 29.63 in1003.4 mb 0.00 in0.0 mm 0.00 in0.0 mm 0.00 in0.0 mm
03:50 PM 67.1°F19.5°C 32.0°F0.0°C 27% 6.0 mph SW9.7 kmh SW 16.0 mph25.7 kmh 29.63 in1003.4 mb 0.00 in0.0 mm 0.00 in0.0 mm 0.00 in0.0 mm
03:55 PM 67.1°F19.5°C 32.0°F0.0°C 27% 8.0 mph SW12.9 kmh SW 23.0 mph37.0 kmh 29.63 in1003.4 mb 0.00 in0.0 mm 0.00 in0.0 mm 0.00 in0.0 mm
04:00 PM 66.7°F19.3°C 32.5°F0.3°C 28% 9.0 mph SW14.5 kmh SW 23.0 mph37.0 kmh 29.63 in1003.4 mb 0.00 in0.0 mm 0.00 in0.0 mm 0.00 in0.0 mm
04:05 PM 66.7°F19.3°C 34.3°F1.3°C 30% 10.0 mph SW16.1 kmh SW 20.0 mph32.2 kmh 29.63 in1003.4 mb 0.00 in0.0 mm 0.00 in0.0 mm 0.00 in0.0 mm
04:10 PM 66.7°F19.3°C 35.2°F1.8°C 31% 9.0 mph SW14.5 kmh SW 20.0 mph32.2 kmh 29.63 in1003.4 mb 0.00 in0.0 mm 0.00 in0.0 mm 0.00 in0.0 mm
04:15 PM 66.9°F19.4°C 35.2°F1.8°C 31% 7.0 mph SW11.3 kmh SW 14.0 mph22.5 kmh 29.63 in1003.4 mb 0.00 in0.0 mm 0.00 in0.0 mm 0.00 in0.0 mm
04:20 PM 66.7°F19.3°C 36.0°F2.2°C 32% 8.0 mph SW12.9 kmh SW 22.0 mph35.4 kmh 29.63 in1003.4 mb 0.00 in0.0 mm 0.00 in0.0 mm 0.00 in0.0 mm
04:25 PM 66.6°F19.2°C 35.8°F2.1°C 32% 10.0 mph SW16.1 kmh SW 22.0 mph35.4 kmh 29.63 in1003.4 mb 0.00 in0.0 mm 0.00 in0.0 mm 0.00 in0.0 mm
04:30 PM 66.2°F19.0°C 35.4°F1.9°C 32% 9.0 mph SW14.5 kmh SW 18.0 mph29.0 kmh 29.62 in1003.0 mb 0.00 in0.0 mm 0.00 in0.0 mm 0.00 in0.0 mm
04:35 PM 66.0°F18.9°C 36.1°F2.3°C 33% 7.0 mph SW11.3 kmh SW 15.0 mph24.1 kmh 29.62 in1003.0 mb 0.00 in0.0 mm 0.00 in0.0 mm 0.00 in0.0 mm
04:40 PM 65.8°F18.8°C 34.3°F1.3°C 31% 7.0 mph SW11.3 kmh SW 15.0 mph24.1 kmh 29.62 in1003.0 mb 0.00 in0.0 mm 0.00 in0.0 mm 0.00 in0.0 mm
04:45 PM 65.7°F18.7°C 34.2°F1.2°C 31% 8.0 mph SW12.9 kmh SW 15.0 mph24.1 kmh 29.63 in1003.4 mb 0.00 in0.0 mm 0.00 in0.0 mm 0.00 in0.0 mm
04:50 PM 65.8°F18.8°C 34.3°F1.3°C 31% 8.0 mph SW12.9 kmh SW 14.0 mph22.5 kmh 29.62 in1003.0 mb 0.00 in0.0 mm 0.00 in0.0 mm 0.00 in0.0 mm
04:55 PM 65.8°F18.8°C 33.6°F0.9°C 30% 9.0 mph SW14.5 kmh SW 21.0 mph33.8 kmh 29.63 in1003.4 mb 0.00 in0.0 mm 0.00 in0.0 mm 0.00 in0.0 mm
05:00 PM 66.0°F18.9°C 34.5°F1.4°C 31% 9.0 mph SW14.5 kmh SW 21.0 mph33.8 kmh 29.62 in1003.0 mb 0.00 in0.0 mm 0.00 in0.0 mm 0.00 in0.0 mm
05:05 PM 65.8°F18.8°C 34.3°F1.3°C 31% 8.0 mph SW12.9 kmh SW 18.0 mph29.0 kmh 29.62 in1003.0 mb 0.00 in0.0 mm 0.00 in0.0 mm 0.00 in0.0 mm
05:10 PM 65.7°F18.7°C 34.9°F1.6°C 32% 6.0 mph SW9.7 kmh SW 15.0 mph24.1 kmh 29.62 in1003.0 mb 0.00 in0.0 mm 0.00 in0.0 mm 0.00 in0.0 mm
05:15 PM 65.3°F18.5°C 33.8°F1.0°C 31% 6.0 mph SW9.7 kmh SW 15.0 mph24.1 kmh 29.62 in1003.0 mb 0.00 in0.0 mm 0.00 in0.0 mm 0.00 in0.0 mm
05:20 PM 64.9°F18.3°C 34.3°F1.3°C 32% 6.0 mph SW9.7 kmh SW 15.0 mph24.1 kmh 29.62 in1003.0 mb 0.00 in0.0 mm 0.00 in0.0 mm 0.00 in0.0 mm
05:25 PM 64.6°F18.1°C 34.0°F1.1°C 32% 5.0 mph SW8.0 kmh SW 13.0 mph20.9 kmh 29.62 in1003.0 mb 0.00 in0.0 mm 0.00 in0.0 mm 0.00 in0.0 mm
05:30 PM 64.0°F17.8°C 33.6°F0.9°C 32% 4.0 mph SW6.4 kmh SW 11.0 mph17.7 kmh 29.62 in1003.0 mb 0.00 in0.0 mm 0.00 in0.0 mm 0.00 in0.0 mm
05:35 PM 63.9°F17.7°C 33.4°F0.8°C 32% 4.0 mph SW6.4 kmh SW 10.0 mph16.1 kmh 29.62 in1003.0 mb 0.00 in0.0 mm 0.00 in0.0 mm 0.00 in0.0 mm
05:40 PM 63.7°F17.6°C 34.0°F1.1°C 33% 3.0 mph SW4.8 kmh SW 8.0 mph12.9 kmh 29.61 in1002.7 mb 0.00 in0.0 mm 0.00 in0.0 mm 0.00 in0.0 mm
05:45 PM 63.3°F17.4°C 32.9°F0.5°C 32% 3.0 mph SW4.8 kmh SW 7.0 mph11.3 kmh 29.61 in1002.7 mb 0.00 in0.0 mm 0.00 in0.0 mm 0.00 in0.0 mm
05:50 PM 63.0°F17.2°C 33.4°F0.8°C 33% 2.0 mph SW3.2 kmh SW 6.0 mph9.7 kmh 29.61 in1002.7 mb 0.00 in0.0 mm 0.00 in0.0 mm 0.00 in0.0 mm
05:55 PM 62.8°F17.1°C 32.5°F0.3°C 32% 2.0 mph SW3.2 kmh SW 8.0 mph12.9 kmh 29.61 in1002.7 mb 0.00 in0.0 mm 0.00 in0.0 mm 0.00 in0.0 mm
06:00 PM 62.4°F16.9°C 32.2°F0.1°C 32% 3.0 mph SW4.8 kmh SW 8.0 mph12.9 kmh 29.61 in1002.7 mb 0.00 in0.0 mm 0.00 in0.0 mm 0.00 in0.0 mm
06:05 PM 62.2°F16.8°C 32.7°F0.4°C 33% 3.0 mph SW4.8 kmh SW 8.0 mph12.9 kmh 29.61 in1002.7 mb 0.00 in0.0 mm 0.00 in0.0 mm 0.00 in0.0 mm
06:10 PM 62.1°F16.7°C 32.5°F0.3°C 33% 2.0 mph SW3.2 kmh SW 6.0 mph9.7 kmh 29.61 in1002.7 mb 0.00 in0.0 mm 0.00 in0.0 mm 0.00 in0.0 mm
06:15 PM 61.5°F16.4°C 32.2°F0.1°C 33% 2.0 mph SW3.2 kmh SW 6.0 mph9.7 kmh 29.61 in1002.7 mb 0.00 in0.0 mm 0.00 in0.0 mm 0.00 in0.0 mm
06:20 PM 61.3°F16.3°C 32.0°F0.0°C 33% 2.0 mph SW3.2 kmh SW 5.0 mph8.0 kmh 29.61 in1002.7 mb 0.00 in0.0 mm 0.00 in0.0 mm 0.00 in0.0 mm
06:25 PM 61.2°F16.2°C 32.5°F0.3°C 34% 2.0 mph SW3.2 kmh SW 5.0 mph8.0 kmh 29.61 in1002.7 mb 0.00 in0.0 mm 0.00 in0.0 mm 0.00 in0.0 mm
06:30 PM 61.0°F16.1°C 32.4°F0.2°C 34% 2.0 mph SW3.2 kmh SW 5.0 mph8.0 kmh 29.61 in1002.7 mb 0.00 in0.0 mm 0.00 in0.0 mm 0.00 in0.0 mm
06:35 PM 60.6°F15.9°C 32.9°F0.5°C 35% 1.0 mph SW1.6 kmh SW 5.0 mph8.0 kmh 29.61 in1002.7 mb 0.00 in0.0 mm 0.00 in0.0 mm 0.00 in0.0 mm
06:40 PM 60.4°F15.8°C 32.7°F0.4°C 35% 1.0 mph SW1.6 kmh SW 6.0 mph9.7 kmh 29.61 in1002.7 mb 0.00 in0.0 mm 0.00 in0.0 mm 0.00 in0.0 mm
06:45 PM 60.1°F15.6°C 32.4°F0.2°C 35% 1.0 mph SW1.6 kmh SW 6.0 mph9.7 kmh 29.61 in1002.7 mb 0.00 in0.0 mm 0.00 in0.0 mm 0.00 in0.0 mm
06:50 PM 59.9°F15.5°C 32.9°F0.5°C 36% 1.0 mph S1.6 kmh S 4.0 mph6.4 kmh 29.61 in1002.7 mb 0.00 in0.0 mm 0.00 in0.0 mm 0.00 in0.0 mm
06:55 PM 59.5°F15.3°C 32.5°F0.3°C 36% 1.0 mph S1.6 kmh S 4.0 mph6.4 kmh 29.60 in1002.4 mb 0.00 in0.0 mm 0.00 in0.0 mm 0.00 in0.0 mm
07:00 PM 59.2°F15.1°C 32.9°F0.5°C 37% Calm Calm 2.0 mph3.2 kmh 29.60 in1002.4 mb 0.00 in0.0 mm 0.00 in0.0 mm 0.00 in0.0 mm
07:05 PM 58.8°F14.9°C 32.5°F0.3°C 37% Calm Calm 4.0 mph6.4 kmh 29.60 in1002.4 mb 0.00 in0.0 mm 0.00 in0.0 mm 0.00 in0.0 mm
07:10 PM 58.6°F14.8°C 33.1°F0.6°C 38% 1.0 mph S1.6 kmh S 4.0 mph6.4 kmh 29.60 in1002.4 mb 0.00 in0.0 mm 0.00 in0.0 mm 0.00 in0.0 mm
07:15 PM 58.6°F14.8°C 33.1°F0.6°C 38% 1.0 mph S1.6 kmh S 4.0 mph6.4 kmh 29.60 in1002.4 mb 0.00 in0.0 mm 0.00 in0.0 mm 0.00 in0.0 mm
07:20 PM 58.5°F14.7°C 32.9°F0.5°C 38% 1.0 mph S1.6 kmh S 4.0 mph6.4 kmh 29.60 in1002.4 mb 0.00 in0.0 mm 0.00 in0.0 mm 0.00 in0.0 mm
07:25 PM 58.3°F14.6°C 32.7°F0.4°C 38% 1.0 mph S1.6 kmh S 5.0 mph8.0 kmh 29.61 in1002.7 mb 0.00 in0.0 mm 0.00 in0.0 mm 0.00 in0.0 mm
07:30 PM 58.1°F14.5°C 32.5°F0.3°C 38% 1.0 mph S1.6 kmh S 5.0 mph8.0 kmh 29.61 in1002.7 mb 0.00 in0.0 mm 0.00 in0.0 mm 0.00 in0.0 mm
07:35 PM 58.3°F14.6°C 32.7°F0.4°C 38% 2.0 mph SSW3.2 kmh SSW 6.0 mph9.7 kmh 29.61 in1002.7 mb 0.00 in0.0 mm 0.00 in0.0 mm 0.00 in0.0 mm
07:40 PM 58.6°F14.8°C 32.5°F0.3°C 37% 3.0 mph SSW4.8 kmh SSW 8.0 mph12.9 kmh 29.61 in1002.7 mb 0.00 in0.0 mm 0.00 in0.0 mm 0.00 in0.0 mm
07:45 PM 58.6°F14.8°C 32.5°F0.3°C 37% 2.0 mph SSW3.2 kmh SSW 8.0 mph12.9 kmh 29.61 in1002.7 mb 0.00 in0.0 mm 0.00 in0.0 mm 0.00 in0.0 mm
07:50 PM 58.5°F14.7°C 32.9°F0.5°C 38% 1.0 mph S1.6 kmh S 4.0 mph6.4 kmh 29.61 in1002.7 mb 0.00 in0.0 mm 0.00 in0.0 mm 0.00 in0.0 mm
07:55 PM 58.1°F14.5°C 32.5°F0.3°C 38% 1.0 mph S1.6 kmh S 3.0 mph4.8 kmh 29.61 in1002.7 mb 0.00 in0.0 mm 0.00 in0.0 mm 0.00 in0.0 mm
08:00 PM 57.7°F14.3°C 32.2°F0.1°C 38% 1.0 mph SSW1.6 kmh SSW 4.0 mph6.4 kmh 29.61 in1002.7 mb 0.00 in0.0 mm 0.00 in0.0 mm 0.00 in0.0 mm
08:05 PM 57.6°F14.2°C 32.2°F0.1°C 38% 2.0 mph SW3.2 kmh SW 7.0 mph11.3 kmh 29.61 in1002.7 mb 0.00 in0.0 mm 0.00 in0.0 mm 0.00 in0.0 mm
08:10 PM 57.6°F14.2°C 32.7°F0.4°C 39% 2.0 mph SW3.2 kmh SW 7.0 mph11.3 kmh 29.62 in1003.0 mb 0.00 in0.0 mm 0.00 in0.0 mm 0.00 in0.0 mm
08:15 PM 57.6°F14.2°C 33.3°F0.7°C 40% 3.0 mph SW4.8 kmh SW 14.0 mph22.5 kmh 29.62 in1003.0 mb 0.00 in0.0 mm 0.00 in0.0 mm 0.00 in0.0 mm
08:20 PM 57.6°F14.2°C 34.0°F1.1°C 41% 5.0 mph SW8.0 kmh SW 14.0 mph22.5 kmh 29.62 in1003.0 mb 0.00 in0.0 mm 0.00 in0.0 mm 0.00 in0.0 mm
08:25 PM 57.4°F14.1°C 33.8°F1.0°C 41% 5.0 mph SW8.0 kmh SW 10.0 mph16.1 kmh 29.62 in1003.0 mb 0.00 in0.0 mm 0.00 in0.0 mm 0.00 in0.0 mm
08:30 PM 57.6°F14.2°C 34.5°F1.4°C 42% 4.0 mph SW6.4 kmh SW 10.0 mph16.1 kmh 29.62 in1003.0 mb 0.00 in0.0 mm 0.00 in0.0 mm 0.00 in0.0 mm
08:35 PM 57.2°F14.0°C 34.3°F1.3°C 42% 3.0 mph SW4.8 kmh SW 9.0 mph14.5 kmh 29.62 in1003.0 mb 0.00 in0.0 mm 0.00 in0.0 mm 0.00 in0.0 mm
08:40 PM 57.0°F13.9°C 34.9°F1.6°C 43% 3.0 mph SW4.8 kmh SW 8.0 mph12.9 kmh 29.62 in1003.0 mb 0.00 in0.0 mm 0.00 in0.0 mm 0.00 in0.0 mm
08:45 PM 57.0°F13.9°C 34.7°F1.5°C 43% 3.0 mph SW4.8 kmh SW 8.0 mph12.9 kmh 29.62 in1003.0 mb 0.00 in0.0 mm 0.00 in0.0 mm 0.00 in0.0 mm
08:50 PM 56.8°F13.8°C 34.5°F1.4°C 43% 3.0 mph SW4.8 kmh SW 7.0 mph11.3 kmh 29.61 in1002.7 mb 0.00 in0.0 mm 0.00 in0.0 mm 0.00 in0.0 mm
08:55 PM 56.7°F13.7°C 34.5°F1.4°C 43% 2.0 mph SW3.2 kmh SW 5.0 mph8.0 kmh 29.61 in1002.7 mb 0.00 in0.0 mm 0.00 in0.0 mm 0.00 in0.0 mm
09:00 PM 56.5°F13.6°C 34.9°F1.6°C 44% 2.0 mph SSW3.2 kmh SSW 5.0 mph8.0 kmh 29.61 in1002.7 mb 0.00 in0.0 mm 0.00 in0.0 mm 0.00 in0.0 mm
09:05 PM 56.3°F13.5°C 34.7°F1.5°C 44% 1.0 mph SSW1.6 kmh SSW 5.0 mph8.0 kmh 29.61 in1002.7 mb 0.00 in0.0 mm 0.00 in0.0 mm 0.00 in0.0 mm
09:10 PM 55.9°F13.3°C 34.9°F1.6°C 45% 1.0 mph S1.6 kmh S 2.0 mph3.2 kmh 29.61 in1002.7 mb 0.00 in0.0 mm 0.00 in0.0 mm 0.00 in0.0 mm
09:15 PM 55.8°F13.2°C 35.2°F1.8°C 46% 1.0 mph SSE1.6 kmh SSE 2.0 mph3.2 kmh 29.61 in1002.7 mb 0.00 in0.0 mm 0.00 in0.0 mm 0.00 in0.0 mm
09:20 PM 55.8°F13.2°C 35.2°F1.8°C 46% Calm Calm 2.0 mph3.2 kmh 29.61 in1002.7 mb 0.00 in0.0 mm 0.00 in0.0 mm 0.00 in0.0 mm
09:25 PM 55.8°F13.2°C 35.8°F2.1°C 47% Calm Calm 6.0 mph9.7 kmh 29.61 in1002.7 mb 0.00 in0.0 mm 0.00 in0.0 mm 0.00 in0.0 mm
09:30 PM 55.9°F13.3°C 36.0°F2.2°C 47% 1.0 mph SW1.6 kmh SW 6.0 mph9.7 kmh 29.61 in1002.7 mb 0.00 in0.0 mm 0.00 in0.0 mm 0.00 in0.0 mm
09:35 PM 55.8°F13.2°C 35.8°F2.1°C 47% 1.0 mph SW1.6 kmh SW 3.0 mph4.8 kmh 29.61 in1002.7 mb 0.00 in0.0 mm 0.00 in0.0 mm 0.00 in0.0 mm
09:40 PM 55.6°F13.1°C 36.1°F2.3°C 48% Calm Calm 1.0 mph1.6 kmh 29.61 in1002.7 mb 0.00 in0.0 mm 0.00 in0.0 mm 0.00 in0.0 mm
09:45 PM 55.0°F12.8°C 35.8°F2.1°C 48% Calm Calm 1.0 mph1.6 kmh 29.61 in1002.7 mb 0.00 in0.0 mm 0.00 in0.0 mm 0.00 in0.0 mm
09:50 PM 54.7°F12.6°C 36.0°F2.2°C 49% Calm Calm -- 29.61 in1002.7 mb 0.00 in0.0 mm 0.00 in0.0 mm 0.00 in0.0 mm
09:55 PM 54.3°F12.4°C 36.1°F2.3°C 50% Calm Calm -- 29.61 in1002.7 mb 0.00 in0.0 mm 0.00 in0.0 mm 0.00 in0.0 mm
10:00 PM 54.5°F12.5°C 36.1°F2.3°C 50% Calm Calm 1.0 mph1.6 kmh 29.61 in1002.7 mb 0.00 in0.0 mm 0.00 in0.0 mm 0.00 in0.0 mm
10:05 PM 54.7°F12.6°C 36.5°F2.5°C 50% Calm Calm 1.0 mph1.6 kmh 29.61 in1002.7 mb 0.00 in0.0 mm 0.00 in0.0 mm 0.00 in0.0 mm
10:10 PM 54.9°F12.7°C 36.5°F2.5°C 50% Calm Calm 1.0 mph1.6 kmh 29.61 in1002.7 mb 0.00 in0.0 mm 0.00 in0.0 mm 0.00 in0.0 mm
10:15 PM 54.7°F12.6°C 36.5°F2.5°C 50% Calm Calm -- 29.61 in1002.7 mb 0.00 in0.0 mm 0.00 in0.0 mm 0.00 in0.0 mm
10:20 PM 54.7°F12.6°C 36.9°F2.7°C 51% Calm Calm -- 29.60 in1002.4 mb 0.00 in0.0 mm 0.00 in0.0 mm 0.00 in0.0 mm
10:25 PM 54.3°F12.4°C 37.0°F2.8°C 52% Calm Calm -- 29.60 in1002.4 mb 0.00 in0.0 mm 0.00 in0.0 mm 0.00 in0.0 mm
10:30 PM 53.8°F12.1°C 36.5°F2.5°C 52% Calm Calm -- 29.60 in1002.4 mb 0.00 in0.0 mm 0.00 in0.0 mm 0.00 in0.0 mm
10:35 PM 53.6°F12.0°C 36.9°F2.7°C 53% Calm Calm -- 29.60 in1002.4 mb 0.00 in0.0 mm 0.00 in0.0 mm 0.00 in0.0 mm
10:40 PM 53.4°F11.9°C 37.2°F2.9°C 54% Calm Calm 3.0 mph4.8 kmh 29.60 in1002.4 mb 0.00 in0.0 mm 0.00 in0.0 mm 0.00 in0.0 mm
10:45 PM 53.2°F11.8°C 37.0°F2.8°C 54% 1.0 mph NW1.6 kmh NW 7.0 mph11.3 kmh 29.62 in1003.0 mb 0.00 in0.0 mm 0.00 in0.0 mm 0.00 in0.0 mm
10:50 PM 52.7°F11.5°C 37.9°F3.3°C 57% 3.0 mph NW4.8 kmh NW 11.0 mph17.7 kmh 29.62 in1003.0 mb 0.00 in0.0 mm 0.00 in0.0 mm 0.00 in0.0 mm
10:55 PM 52.9°F11.6°C 40.3°F4.6°C 62% 3.0 mph NW4.8 kmh NW 21.0 mph33.8 kmh 29.62 in1003.0 mb 0.00 in0.0 mm 0.00 in0.0 mm 0.00 in0.0 mm
11:00 PM 53.4°F11.9°C 41.9°F5.5°C 65% 4.0 mph NW6.4 kmh NW 21.0 mph33.8 kmh 29.62 in1003.0 mb 0.00 in0.0 mm 0.00 in0.0 mm 0.00 in0.0 mm
11:05 PM 53.1°F11.7°C 42.4°F5.8°C 67% 8.0 mph NW12.9 kmh NW 22.0 mph35.4 kmh 29.63 in1003.4 mb 0.00 in0.0 mm 0.00 in0.0 mm 0.00 in0.0 mm
11:10 PM 51.8°F11.0°C 42.3°F5.7°C 70% 10.0 mph NW16.1 kmh NW 22.0 mph35.4 kmh 29.64 in1003.7 mb 0.00 in0.0 mm 0.00 in0.0 mm 0.00 in0.0 mm
11:15 PM 50.7°F10.4°C 42.4°F5.8°C 73% 11.0 mph NW17.7 kmh NW 21.0 mph33.8 kmh 29.64 in1003.7 mb 0.00 in0.0 mm 0.00 in0.0 mm 0.00 in0.0 mm
11:20 PM 50.2°F10.1°C 42.4°F5.8°C 75% 9.0 mph NW14.5 kmh NW 21.0 mph33.8 kmh 29.65 in1004.1 mb 0.00 in0.0 mm 0.00 in0.0 mm 0.00 in0.0 mm
11:25 PM 49.6°F9.8°C 42.3°F5.7°C 76% 7.0 mph NW11.3 kmh NW 20.0 mph32.2 kmh 29.65 in1004.1 mb 0.00 in0.0 mm 0.00 in0.0 mm 0.00 in0.0 mm
11:30 PM 49.1°F9.5°C 42.3°F5.7°C 77% 8.0 mph NNW12.9 kmh NNW 19.0 mph30.6 kmh 29.66 in1004.4 mb 0.00 in0.0 mm 0.00 in0.0 mm 0.00 in0.0 mm
11:35 PM 48.4°F9.1°C 41.5°F5.3°C 77% 9.0 mph NNW14.5 kmh NNW 17.0 mph27.4 kmh 29.67 in1004.7 mb 0.00 in0.0 mm 0.00 in0.0 mm 0.00 in0.0 mm
11:40 PM 47.8°F8.8°C 41.0°F5.0°C 77% 8.0 mph NNW12.9 kmh NNW 20.0 mph32.2 kmh 29.67 in1004.7 mb 0.00 in0.0 mm 0.00 in0.0 mm 0.00 in0.0 mm
11:45 PM 47.5°F8.6°C 40.8°F4.9°C 78% 9.0 mph NW14.5 kmh NW 20.0 mph32.2 kmh 29.67 in1004.7 mb 0.00 in0.0 mm 0.00 in0.0 mm 0.00 in0.0 mm
11:50 PM 47.3°F8.5°C 40.8°F4.9°C 78% 6.0 mph NW9.7 kmh NW 17.0 mph27.4 kmh 29.68 in1005.1 mb 0.00 in0.0 mm 0.00 in0.0 mm 0.00 in0.0 mm
11:55 PM 47.1°F8.4°C 40.6°F4.8°C 78% 2.0 mph NNW3.2 kmh NNW 8.0 mph12.9 kmh 29.68 in1005.1 mb 0.00 in0.0 mm 0.00 in0.0 mm 0.00 in0.0 mm